createdAt,value
2019-05-13T00:01:23.823Z,9.04
2019-05-13T00:03:55.833Z,8.94
2019-05-13T00:06:27.638Z,8.91
2019-05-13T00:08:59.470Z,8.98
2019-05-13T00:11:31.503Z,8.91
2019-05-13T00:14:04.414Z,8.91
2019-05-13T00:16:36.604Z,8.88
2019-05-13T00:19:08.415Z,8.91
2019-05-13T00:21:40.468Z,8.87
2019-05-13T00:24:13.803Z,8.83
2019-05-13T00:26:47.159Z,8.83
2019-05-13T00:29:19.446Z,8.80
2019-05-13T00:31:53.854Z,8.77
2019-05-13T00:34:25.286Z,8.80
2019-05-13T00:37:07.673Z,8.76
2019-05-13T00:39:33.410Z,8.77
2019-05-13T00:42:06.002Z,8.71
2019-05-13T00:44:38.018Z,8.76
2019-05-13T00:47:13.131Z,8.79
2019-05-13T00:49:44.512Z,8.70
2019-05-13T00:52:16.521Z,8.59
2019-05-13T00:54:48.317Z,8.69
2019-05-13T00:57:20.195Z,8.76
2019-05-13T00:59:54.027Z,8.68
2019-05-13T01:02:25.595Z,8.70
2019-05-13T01:04:57.438Z,8.70
2019-05-13T01:07:29.437Z,8.73
2019-05-13T01:10:01.199Z,8.74
2019-05-13T01:12:34.476Z,8.68
2019-05-13T01:15:07.916Z,8.70
2019-05-13T01:17:39.698Z,8.74
2019-05-13T01:20:14.165Z,8.64
2019-05-13T01:22:46.742Z,8.71
2019-05-13T01:25:18.509Z,8.68
2019-05-13T01:27:50.465Z,8.59
2019-05-13T01:30:23.813Z,8.58
2019-05-13T01:32:55.725Z,8.52
2019-05-13T01:35:27.588Z,8.53
2019-05-13T01:37:59.395Z,8.51
2019-05-13T01:40:31.155Z,8.50
2019-05-13T01:43:03.703Z,8.44
2019-05-13T01:45:35.889Z,8.47
2019-05-13T01:48:08.190Z,8.49
2019-05-13T01:50:40.187Z,8.48
2019-05-13T01:53:14.025Z,8.46
2019-05-13T01:55:45.861Z,8.51
2019-05-13T01:58:18.028Z,8.46
2019-05-13T02:00:51.779Z,8.43
2019-05-13T02:03:24.906Z,8.41
2019-05-13T02:05:57.965Z,8.41
2019-05-13T02:08:29.821Z,8.42
2019-05-13T02:11:04.018Z,8.42
2019-05-13T02:13:35.584Z,8.46
2019-05-13T02:16:07.653Z,8.42
2019-05-13T02:18:39.810Z,8.36
2019-05-13T02:21:13.802Z,8.32
2019-05-13T02:23:45.440Z,8.36
2019-05-13T02:26:17.263Z,8.40
2019-05-13T02:28:49.265Z,8.38
2019-05-13T02:31:31.970Z,8.40
2019-05-13T02:33:55.044Z,8.43
2019-05-13T02:36:26.817Z,8.43
2019-05-13T02:39:02.218Z,8.41
2019-05-13T02:41:34.202Z,8.38
2019-05-13T02:44:06.473Z,8.33
2019-05-13T02:46:38.319Z,8.29
2019-05-13T02:49:12.211Z,8.35
2019-05-13T02:51:43.983Z,8.31
2019-05-13T02:54:16.798Z,8.36
2019-05-13T02:56:48.592Z,8.41
2019-05-13T02:59:22.629Z,8.33
2019-05-13T03:01:54.122Z,8.35
2019-05-13T03:04:26.083Z,8.37
2019-05-13T03:06:57.843Z,8.43
2019-05-13T03:09:32.473Z,8.45
2019-05-13T03:12:04.360Z,8.49
2019-05-13T03:14:36.741Z,8.39
2019-05-13T03:17:23.783Z,8.37
2019-05-13T03:19:55.538Z,8.41
2019-05-13T03:22:27.531Z,8.40
2019-05-13T03:25:02.839Z,8.31
2019-05-13T03:27:34.270Z,8.33
2019-05-13T03:30:06.604Z,8.29
2019-05-13T03:32:50.311Z,8.29
2019-05-13T03:35:16.591Z,8.31
2019-05-13T03:37:45.639Z,8.31
2019-05-13T03:40:18.543Z,8.36
2019-05-13T03:42:53.380Z,8.40
2019-05-13T03:45:27.948Z,8.26
2019-05-13T03:48:04.279Z,8.38
2019-05-13T03:50:36.033Z,8.35
2019-05-13T03:53:07.951Z,8.42
2019-05-13T03:55:43.182Z,8.47
2019-05-13T03:58:13.735Z,8.39
2019-05-13T04:00:46.614Z,8.38
2019-05-13T04:03:18.724Z,8.39
2019-05-13T04:05:52.831Z,8.45
2019-05-13T04:08:24.303Z,8.50
2019-05-13T04:10:57.478Z,8.41
2019-05-13T04:13:29.533Z,8.38
2019-05-13T04:16:03.958Z,8.43
2019-05-13T04:18:35.640Z,8.48
2019-05-13T04:21:07.593Z,8.49
2019-05-13T04:23:42.327Z,8.22
2019-05-13T04:26:14.611Z,8.31
2019-05-13T04:28:46.711Z,8.31
2019-05-13T04:31:18.823Z,8.32
2019-05-13T04:33:53.081Z,8.31
2019-05-13T04:36:24.385Z,8.34
2019-05-13T04:38:56.162Z,8.37
2019-05-13T04:41:28.142Z,8.37
2019-05-13T04:44:02.653Z,8.44
2019-05-13T04:46:33.680Z,8.43
2019-05-13T04:49:05.930Z,8.48
2019-05-13T04:51:41.868Z,8.42
2019-05-13T04:54:13.285Z,8.48
2019-05-13T04:56:45.525Z,8.35
2019-05-13T04:59:17.338Z,8.31
2019-05-13T05:02:36.817Z,8.26
2019-05-13T05:05:32.769Z,8.38
2019-05-13T05:09:08.371Z,8.45
2019-05-13T05:12:23.282Z,8.46
2019-05-13T05:15:41.727Z,8.53
2019-05-13T05:19:13.568Z,8.55
2019-05-13T05:22:02.752Z,8.43
2019-05-13T05:25:01.980Z,8.52
2019-05-13T05:28:04.387Z,8.43
2019-05-13T05:31:51.947Z,8.54
2019-05-13T05:35:26.134Z,8.61
2019-05-13T05:38:31.674Z,8.61
2019-05-13T05:41:05.751Z,8.63
2019-05-13T05:43:45.224Z,8.77
2019-05-13T05:46:17.428Z,8.66
2019-05-13T05:48:53.165Z,8.72
2019-05-13T05:51:27.874Z,8.95
2019-05-13T05:54:03.743Z,8.90
2019-05-13T05:56:36.885Z,8.87
2019-05-13T05:59:12.513Z,8.76
2019-05-13T06:01:48.212Z,8.70
2019-05-13T06:04:22.244Z,8.80
2019-05-13T06:06:56.993Z,8.90
2019-05-13T06:09:28.750Z,8.91
2019-05-13T06:12:01.693Z,8.97
2019-05-13T06:14:34.388Z,9.09
2019-05-13T06:17:06.372Z,9.03
2019-05-13T06:19:38.197Z,9.06
2019-05-13T06:22:12.312Z,9.14
2019-05-13T06:24:45.720Z,9.17
2019-05-13T06:27:17.625Z,9.12
2019-05-13T06:29:52.615Z,9.25
2019-05-13T06:32:26.233Z,9.32
2019-05-13T06:34:57.763Z,9.38
2019-05-13T06:37:32.041Z,9.35
2019-05-13T06:40:03.171Z,9.24
2019-05-13T06:42:34.993Z,9.27
2019-05-13T06:45:07.789Z,9.34
2019-05-13T06:47:41.326Z,9.34
2019-05-13T06:50:13.448Z,9.36
2019-05-13T06:52:45.674Z,9.36
2019-05-13T06:55:17.702Z,9.43
2019-05-13T06:57:51.788Z,9.47
2019-05-13T07:00:23.503Z,9.33
2019-05-13T07:02:55.646Z,9.23
2019-05-13T07:05:27.385Z,9.39
2019-05-13T07:08:01.810Z,9.46
2019-05-13T07:10:33.134Z,9.52
2019-05-13T07:13:06.115Z,9.54
2019-05-13T07:15:37.869Z,9.60
2019-05-13T07:18:11.775Z,9.66
2019-05-13T07:20:43.450Z,9.76
2019-05-13T07:23:15.749Z,9.76
2019-05-13T07:25:47.526Z,9.63
2019-05-13T07:28:21.946Z,9.65
2019-05-13T07:30:53.892Z,9.68
2019-05-13T07:33:26.084Z,9.78
2019-05-13T07:36:02.389Z,9.60
2019-05-13T07:38:34.977Z,9.57
2019-05-13T07:41:07.616Z,9.52
2019-05-13T07:43:42.483Z,9.54
2019-05-13T07:46:13.255Z,9.54
2019-05-13T07:48:45.123Z,9.67
2019-05-13T07:51:16.885Z,9.86
2019-05-13T07:53:51.604Z,9.76
2019-05-13T07:56:22.601Z,9.91
2019-05-13T07:58:54.444Z,9.96
2019-05-13T08:01:26.247Z,10.09
2019-05-13T08:03:58.110Z,10.19
2019-05-13T08:06:32.248Z,10.05
2019-05-13T08:09:05.707Z,10.18
2019-05-13T08:11:56.354Z,10.29
2019-05-13T08:14:12.347Z,10.32
2019-05-13T08:16:44.355Z,10.51
2019-05-13T08:19:16.454Z,10.58
2019-05-13T08:21:48.312Z,10.34
2019-05-13T08:24:22.664Z,10.32
2019-05-13T08:26:53.723Z,10.33
2019-05-13T08:29:25.571Z,10.56
2019-05-13T08:31:57.461Z,10.53
2019-05-13T08:34:29.259Z,10.50
2019-05-13T08:37:02.746Z,10.57
2019-05-13T08:39:38.357Z,10.53
2019-05-13T08:42:16.063Z,10.52
2019-05-13T08:44:41.917Z,10.51
2019-05-13T08:47:13.711Z,10.58
2019-05-13T08:49:45.564Z,10.42
2019-05-13T08:52:17.309Z,10.49
2019-05-13T08:54:52.232Z,10.57
2019-05-13T08:57:23.122Z,10.64
2019-05-13T08:59:55.201Z,10.80
2019-05-13T09:02:27.009Z,10.89
2019-05-13T09:04:59.098Z,10.86
2019-05-13T09:07:32.154Z,11.04
2019-05-13T09:10:05.373Z,11.18
2019-05-13T09:12:40.338Z,11.25
2019-05-13T09:15:12.054Z,11.50
2019-05-13T09:17:44.535Z,11.59
2019-05-13T09:20:16.511Z,11.78
2019-05-13T09:22:48.322Z,11.87
2019-05-13T09:25:21.578Z,11.98
2019-05-13T09:27:53.566Z,11.78
2019-05-13T09:30:27.391Z,11.94
2019-05-13T09:32:59.062Z,11.96
2019-05-13T09:35:31.625Z,11.96
2019-05-13T09:38:03.550Z,11.97
2019-05-13T09:40:36.182Z,11.85
2019-05-13T09:43:07.954Z,11.97
2019-05-13T09:45:41.777Z,12.01
2019-05-13T09:48:13.646Z,12.00
2019-05-13T09:50:45.904Z,12.18
2019-05-13T09:53:17.669Z,12.30
2019-05-13T09:55:52.136Z,12.31
2019-05-13T09:58:23.255Z,12.25
2019-05-13T10:00:55.403Z,12.20
2019-05-13T10:03:29.606Z,11.78
2019-05-13T10:06:02.353Z,11.70
2019-05-13T10:08:35.677Z,11.91
2019-05-13T10:11:07.799Z,11.93
2019-05-13T10:13:39.564Z,12.05
2019-05-13T10:16:12.434Z,12.05
2019-05-13T10:18:44.589Z,12.05
2019-05-13T10:21:16.667Z,12.05
2019-05-13T10:23:48.443Z,12.04
2019-05-13T10:26:22.655Z,11.94
2019-05-13T10:28:55.351Z,12.09
2019-05-13T10:31:27.226Z,12.09
2019-05-13T10:33:59.052Z,12.13
2019-05-13T10:36:30.931Z,12.02
2019-05-13T10:39:02.748Z,12.18
2019-05-13T10:41:34.927Z,12.08
2019-05-13T10:44:06.836Z,11.91
2019-05-13T10:46:42.662Z,11.79
2019-05-13T10:49:14.868Z,11.84
2019-05-13T10:51:46.710Z,11.93
2019-05-13T10:54:18.511Z,12.01
2019-05-13T10:56:53.174Z,12.10
2019-05-13T10:59:24.163Z,11.87
2019-05-13T11:01:56.019Z,11.77
2019-05-13T11:04:27.799Z,11.82
2019-05-13T11:07:02.357Z,11.81
2019-05-13T11:09:33.566Z,11.75
2019-05-13T11:12:07.901Z,11.69
2019-05-13T11:14:42.212Z,11.73
2019-05-13T11:17:14.224Z,11.68
2019-05-13T11:19:45.998Z,11.76
2019-05-13T11:22:17.868Z,11.74
2019-05-13T11:24:51.858Z,11.79
2019-05-13T11:27:23.633Z,11.81
2019-05-13T11:29:55.578Z,11.93
2019-05-13T11:32:27.426Z,11.96
2019-05-13T11:35:01.692Z,12.15
2019-05-13T11:37:33.066Z,12.25
2019-05-13T11:40:04.938Z,12.43
2019-05-13T11:42:37.145Z,12.65
2019-05-13T11:45:11.734Z,12.71
2019-05-13T11:47:44.857Z,12.72
2019-05-13T11:50:18.227Z,12.81
2019-05-13T11:52:52.422Z,12.86
2019-05-13T11:55:23.832Z,12.83
2019-05-13T11:57:55.887Z,12.92
2019-05-13T12:01:02.916Z,12.92
2019-05-13T12:03:35.601Z,12.83
2019-05-13T12:06:07.394Z,12.84
2019-05-13T12:08:39.278Z,12.81
2019-05-13T12:11:14.091Z,12.78
2019-05-13T12:13:44.974Z,12.77
2019-05-13T12:16:16.915Z,12.95
2019-05-13T12:18:51.186Z,12.78
2019-05-13T12:21:22.614Z,12.68
2019-05-13T12:23:56.267Z,12.43
2019-05-13T12:26:28.079Z,12.34
2019-05-13T12:29:02.844Z,12.40
2019-05-13T12:31:33.870Z,12.30
2019-05-13T12:34:05.871Z,12.41
2019-05-13T12:36:37.790Z,12.69
2019-05-13T12:39:13.846Z,12.96
2019-05-13T12:41:43.539Z,13.00
2019-05-13T12:44:16.788Z,13.02
2019-05-13T12:46:54.102Z,12.79
2019-05-13T12:49:32.078Z,12.86
2019-05-13T12:52:01.738Z,12.90
2019-05-13T12:54:32.564Z,12.63
2019-05-13T12:57:11.694Z,12.62
2019-05-13T12:59:38.368Z,12.70
2019-05-13T13:02:13.383Z,12.54
2019-05-13T13:05:07.890Z,12.50
2019-05-13T13:07:17.461Z,12.42
2019-05-13T13:09:53.116Z,12.41
2019-05-13T13:12:33.740Z,12.25
2019-05-13T13:14:57.316Z,12.21
2019-05-13T13:17:29.119Z,12.19
2019-05-13T13:20:08.866Z,12.17
2019-05-13T13:22:34.680Z,12.19
2019-05-13T13:25:08.054Z,12.21
2019-05-13T13:28:03.756Z,12.14
2019-05-13T13:30:14.412Z,12.11
2019-05-13T13:32:46.611Z,12.06
2019-05-13T13:35:18.794Z,11.92
2019-05-13T13:37:53.088Z,11.76
2019-05-13T13:40:29.358Z,11.68
2019-05-13T13:42:57.929Z,11.72
2019-05-13T13:45:36.735Z,11.66
2019-05-13T13:48:04.450Z,11.64
2019-05-13T13:50:36.398Z,11.58
2019-05-13T13:53:08.211Z,11.59
2019-05-13T13:55:43.332Z,11.69
2019-05-13T13:58:14.386Z,11.73
2019-05-13T14:01:00.635Z,11.69
2019-05-13T14:03:20.630Z,11.62
2019-05-13T14:05:53.686Z,11.65
2019-05-13T14:08:26.090Z,11.53
2019-05-13T14:10:58.140Z,11.58
2019-05-13T14:13:32.203Z,11.54
2019-05-13T14:16:04.112Z,11.51
2019-05-13T14:18:36.088Z,11.47
2019-05-13T14:21:08.343Z,11.36
2019-05-13T14:23:42.585Z,11.35
2019-05-13T14:26:14.324Z,11.31
2019-05-13T14:28:46.143Z,11.30
2019-05-13T14:31:18.458Z,11.29
2019-05-13T14:33:52.151Z,11.28
2019-05-13T14:36:24.616Z,11.28
2019-05-13T14:38:56.532Z,11.16
2019-05-13T14:41:31.130Z,11.20
2019-05-13T14:44:03.729Z,11.13
2019-05-13T14:46:55.432Z,11.05
2019-05-13T14:49:12.307Z,11.04
2019-05-13T14:51:43.796Z,10.99
2019-05-13T14:54:15.598Z,10.96
2019-05-13T14:56:47.424Z,10.99
2019-05-13T14:59:21.864Z,10.99
2019-05-13T15:01:53.169Z,10.93
2019-05-13T15:04:24.961Z,10.98
2019-05-13T15:06:56.998Z,11.03
2019-05-13T15:09:31.264Z,10.94
2019-05-13T15:12:02.553Z,10.93
2019-05-13T15:14:34.418Z,10.87
2019-05-13T15:17:07.647Z,10.80
2019-05-13T15:19:41.425Z,10.67
2019-05-13T15:22:16.050Z,10.69
2019-05-13T15:24:47.438Z,10.65
2019-05-13T15:27:22.077Z,10.54
2019-05-13T15:29:53.167Z,10.39
2019-05-13T15:32:25.243Z,10.34
2019-05-13T15:34:57.062Z,10.36
2019-05-13T15:37:31.958Z,10.41
2019-05-13T15:40:03.319Z,10.44
2019-05-13T15:42:35.229Z,10.45
2019-05-13T15:45:08.611Z,10.50
2019-05-13T15:47:40.913Z,10.53
2019-05-13T15:50:12.839Z,10.57
2019-05-13T15:52:44.776Z,10.58
2019-05-13T15:55:16.568Z,10.59
2019-05-13T15:57:48.785Z,10.63
2019-05-13T16:00:21.991Z,10.68
2019-05-13T16:02:54.645Z,10.71
2019-05-13T16:05:26.494Z,10.76
2019-05-13T16:07:58.661Z,10.75
2019-05-13T16:10:30.449Z,10.77
2019-05-13T16:13:02.512Z,10.75
2019-05-13T16:15:34.671Z,10.76
2019-05-13T16:18:06.872Z,10.72
2019-05-13T16:20:42.579Z,10.70
2019-05-13T16:23:13.644Z,10.67
2019-05-13T16:25:45.560Z,10.64
2019-05-13T16:28:17.880Z,10.59
2019-05-13T16:30:51.537Z,10.54
2019-05-13T16:33:23.452Z,10.55
2019-05-13T16:35:55.435Z,10.51
2019-05-13T16:38:27.575Z,10.50
2019-05-13T16:40:59.421Z,10.41
2019-05-13T16:43:32.071Z,10.39
2019-05-13T16:46:07.094Z,10.38
2019-05-13T16:48:38.730Z,10.38
2019-05-13T16:51:12.551Z,10.33
2019-05-13T16:53:44.395Z,10.32
2019-05-13T16:56:26.478Z,10.30
2019-05-13T16:58:52.159Z,10.30
2019-05-13T17:01:24.019Z,10.25
2019-05-13T17:03:56.318Z,10.21
2019-05-13T17:06:28.230Z,10.18
2019-05-13T17:09:01.991Z,10.16
2019-05-13T17:11:34.831Z,10.13
2019-05-13T17:14:07.097Z,10.12
2019-05-13T17:16:41.200Z,10.08
2019-05-13T17:19:12.686Z,10.06
2019-05-13T17:21:44.613Z,10.02
2019-05-13T17:24:16.738Z,10.02
2019-05-13T17:26:52.121Z,10.00
2019-05-13T17:29:23.398Z,9.93
2019-05-13T17:31:55.359Z,9.92
2019-05-13T17:34:27.349Z,9.94
2019-05-13T17:36:59.204Z,9.94
2019-05-13T17:39:32.116Z,9.93
2019-05-13T17:42:04.601Z,9.89
2019-05-13T17:44:37.084Z,9.87
2019-05-13T17:47:11.153Z,9.83
2019-05-13T17:49:43.322Z,9.82
2019-05-13T17:52:15.413Z,9.79
2019-05-13T17:54:47.473Z,9.78
2019-05-13T17:57:21.438Z,9.77
2019-05-13T17:59:53.135Z,9.77
2019-05-13T18:02:25.131Z,9.77
2019-05-13T18:04:57.582Z,9.74
2019-05-13T18:07:31.932Z,9.73
2019-05-13T18:10:03.725Z,9.67
2019-05-13T18:12:35.771Z,9.60
2019-05-13T18:15:08.889Z,9.41
2019-05-13T18:17:41.842Z,9.44
2019-05-13T18:20:14.797Z,9.44
2019-05-13T18:22:46.716Z,9.44
2019-05-13T18:25:18.667Z,9.43
2019-05-13T18:27:52.139Z,9.45
2019-05-13T18:30:24.499Z,9.34
2019-05-13T18:32:56.433Z,9.35
2019-05-13T18:35:28.531Z,9.42
2019-05-13T18:38:01.420Z,9.41
2019-05-13T18:40:33.558Z,9.35
2019-05-13T18:43:05.483Z,9.27
2019-05-13T18:45:37.426Z,9.25
2019-05-13T18:48:12.113Z,9.26
2019-05-13T18:50:44.000Z,9.37
2019-05-13T18:53:16.466Z,9.37
2019-05-13T18:55:48.545Z,9.28
2019-05-13T18:58:22.228Z,9.22
2019-05-13T19:00:54.610Z,9.11
2019-05-13T19:03:26.567Z,9.07
2019-05-13T19:06:00.276Z,9.14
2019-05-13T19:08:32.350Z,9.19
2019-05-13T19:11:04.442Z,9.20
2019-05-13T19:13:36.344Z,9.22
2019-05-13T19:16:08.753Z,9.23
2019-05-13T19:18:42.352Z,9.27
2019-05-13T19:21:15.465Z,9.27
2019-05-13T19:23:47.496Z,9.25
2019-05-13T19:26:21.671Z,9.28
2019-05-13T19:28:54.515Z,9.24
2019-05-13T19:31:26.890Z,9.27
2019-05-13T19:33:58.907Z,9.31
2019-05-13T19:36:32.537Z,9.28
2019-05-13T19:39:06.054Z,9.27
2019-05-13T19:41:38.255Z,9.24
2019-05-13T19:44:10.230Z,9.14
2019-05-13T19:46:42.429Z,9.06
2019-05-13T19:49:28.597Z,9.05
2019-05-13T19:51:52.179Z,9.10
2019-05-13T19:54:25.071Z,9.12
2019-05-13T19:56:57.887Z,9.10
2019-05-13T19:59:32.073Z,9.17
2019-05-13T20:02:04.432Z,9.23
2019-05-13T20:04:36.430Z,9.27
2019-05-13T20:07:11.791Z,9.30
2019-05-13T20:09:43.434Z,9.31
2019-05-13T20:12:16.029Z,9.20
2019-05-13T20:14:51.590Z,9.16
2019-05-13T20:17:23.320Z,9.13
2019-05-13T20:19:55.129Z,9.11
2019-05-13T20:22:27.063Z,9.07
2019-05-13T20:24:59.150Z,9.05
2019-05-13T20:27:31.762Z,9.00
2019-05-13T20:30:03.680Z,8.98
2019-05-13T20:32:35.524Z,9.01
2019-05-13T20:35:07.763Z,9.06
2019-05-13T20:37:40.181Z,9.08
2019-05-13T20:40:12.039Z,9.02
2019-05-13T20:42:44.328Z,9.03
2019-05-13T20:45:16.619Z,9.02
2019-05-13T20:47:48.730Z,9.05
2019-05-13T20:50:21.657Z,9.09
2019-05-13T20:52:54.444Z,9.07
2019-05-13T20:55:26.517Z,9.06
2019-05-13T20:57:58.538Z,9.08
2019-05-13T21:00:31.435Z,9.02
2019-05-13T21:03:03.688Z,8.99
2019-05-13T21:05:36.031Z,8.91
2019-05-13T21:08:07.851Z,8.87
2019-05-13T21:10:42.012Z,8.89
2019-05-13T21:13:14.099Z,8.84
2019-05-13T21:15:45.970Z,8.77
2019-05-13T21:18:17.989Z,8.76
2019-05-13T21:20:49.831Z,8.72
2019-05-13T21:23:22.437Z,8.61
2019-05-13T21:25:54.295Z,8.58
2019-05-13T21:28:26.394Z,8.51
2019-05-13T21:30:58.224Z,8.51
2019-05-13T21:33:31.550Z,8.50
2019-05-13T21:36:03.493Z,8.41
2019-05-13T21:38:35.648Z,8.48
2019-05-13T21:41:07.450Z,8.47
2019-05-13T21:43:41.406Z,8.49
2019-05-13T21:46:13.369Z,8.48
2019-05-13T21:48:45.496Z,8.45
2019-05-13T21:51:17.486Z,8.43
2019-05-13T21:53:51.743Z,8.46
2019-05-13T21:56:23.380Z,8.42
2019-05-13T21:58:55.494Z,8.35
2019-05-13T22:01:27.436Z,8.37
2019-05-13T22:04:01.579Z,8.35
2019-05-13T22:06:33.097Z,8.30
2019-05-13T22:09:07.950Z,8.29
2019-05-13T22:11:41.801Z,8.22
2019-05-13T22:14:14.723Z,8.22
2019-05-13T22:16:46.489Z,8.20
2019-05-13T22:19:18.453Z,8.20
2019-05-13T22:21:51.520Z,8.21
2019-05-13T22:24:23.814Z,8.24
2019-05-13T22:26:55.622Z,8.27
2019-05-13T22:29:27.637Z,8.30
2019-05-13T22:32:01.779Z,8.29
2019-05-13T22:34:33.060Z,8.28
2019-05-13T22:37:04.852Z,8.24
2019-05-13T22:39:37.087Z,8.21
2019-05-13T22:42:08.987Z,8.20
2019-05-13T22:44:41.697Z,8.17
2019-05-13T22:47:13.855Z,8.11
2019-05-13T22:49:45.802Z,8.11
2019-05-13T22:52:17.677Z,8.12
2019-05-13T22:54:51.677Z,8.03
2019-05-13T22:57:23.108Z,8.01
2019-05-13T22:59:55.192Z,7.95
2019-05-13T23:02:27.129Z,7.89
2019-05-13T23:04:59.219Z,7.81
2019-05-13T23:07:31.565Z,7.80
2019-05-13T23:10:03.871Z,7.77
2019-05-13T23:12:35.661Z,7.70
2019-05-13T23:15:08.712Z,7.70
2019-05-13T23:17:41.499Z,7.72
2019-05-13T23:20:14.245Z,7.74
2019-05-13T23:22:46.013Z,7.74
2019-05-13T23:25:21.429Z,7.77
2019-05-13T23:27:52.977Z,7.76
2019-05-13T23:30:25.318Z,7.81
2019-05-13T23:32:57.108Z,7.78
2019-05-13T23:35:28.969Z,7.68
2019-05-13T23:38:01.625Z,7.68
2019-05-13T23:40:34.199Z,7.72
2019-05-13T23:43:05.942Z,7.74
2019-05-13T23:45:37.783Z,7.78
2019-05-13T23:48:09.578Z,7.77
2019-05-13T23:50:41.635Z,7.74
2019-05-13T23:53:13.671Z,7.79
2019-05-13T23:55:45.741Z,7.80
2019-05-13T23:58:17.497Z,7.77
